首页
METAR-TAF:

METAR-TAF

机场 :

累西腓/瓜拉拉皮斯-吉尔贝托·弗雷雷国际机场

累西腓, 伯南布哥, 巴西

纬度: 08-08S, 经度: 034-55W, 海拔: 19米

当前天气观测

该预报发布于44分钟前的21:00 UTC
风速7节,风向
温度 26°C
湿度 84%
气压 1015 hPa
能见度10公里或以上
少量云层高于1800英尺

METAR: SBRF 252100Z 18007KT 9999 FEW018 26/23 Q1015

时间: 18:44 (21:44 UTC)

预报

该预报发布于7小时和6分钟前的14:38 UTC
预报有效从25日的 18点(UTC)到 26日的 18点(UTC)
风速10节,风向南转南东
能見度: 7000
多云层高于1700英尺
少量云层高于2500英尺, 塔状积云.
短暂存在
从 25日的 18点(UTC)到 26日的 04点(UTC)
风速12节,风向东南
能見度: 4000
多云层高于1400英尺
少量云层高于3000英尺, 塔状积云.
阵雨
成为
从 26日的 10点(UTC)到 26日的 12点(UTC)
风速5节,风向
多云层高于1500英尺
短暂存在
从 26日的 16点(UTC)到 26日的 18点(UTC)
风速12节,风向东南
能見度: 6000
散云层高于2000英尺
少量云层高于3000英尺, 塔状积云.

TAF: SBRF 251438Z 2518/2618 15010KT 7000 BKN017 FEW025TCU TN23/2608Z TX28/2616Z TEMPO 2518/2604 13012KT 4000 SHRA BKN014 FEW030TCU BECMG 2610/2612 18005KT BKN015 TEMPO 2616/2618 13012KT 6000 SCT020 FEW030TCU RMK PGU

超过4000个机场的气象观测和天气预报(METAR&TAF报告)。

可查询的气象台以黄色和红色小点在地图上表示。

将鼠标移到小点上方,可查看气象台名称。

然后点击查看天气观测和预报。

如需切换地图:点击带黑十字的绿色按钮放大地图;点击带横线的绿色按钮缩小地图;或者点击绿色箭头查看邻近地区的地图。


METAR-TAF: